Altamont, Kansas
Current Conditions -  °F | °C
As of 10:52 PM on Friday 19 Dec 2014 (Local Time) from KPPF Reporting Station
Moderate Fog Moderate Fog  
Wind Chill:   Ceiling: 200
Heat Index:   Visibility: 0.5mi
Dew Point:   Wind: 3mph
Humidity: 100%   Direction: 310°NW
Pressure: 30.23"   Gusts: NA
Location:  37.19°N, 95.3°W
Report Text: KPPF 200452Z AUTO 31003KT 1/2SM FG VV002 02/02 A3023 RMK AO2 SLP242 T00220022
Loading
Personal Weather Stations






























Interactive Weather Map New forecast layout! Learn more

10-Day Weather Forecast

Advertisements
Track Severe Weather on mobile